Time;durP1;ratioP1;P1;durP2;ratioP2;P2;SDS_P1;SDS_P2;PMS_P1;PMS_P2;Temp;Humidity;BMP_temperature;BMP_pressure;BME280_temperature;BME280_humidity;BME280_pressure;Samples;Min_cycle;Max_cycle;Signal;HPM_P1;HPM_P2
2021/07/07 00:01:13;;;;;;;6.20;1.90;;;;;;;22.94;56.10;100057.03;5020874;28;20047;-76
2021/07/07 00:03:38;;;;;;;7.43;1.73;;;;;;;22.89;56.15;100052.00;5038273;28;20013;-75
2021/07/07 00:06:04;;;;;;;4.25;1.90;;;;;;;22.86;55.66;100053.00;5030259;28;20021;-76
2021/07/07 00:08:29;;;;;;;4.75;2.10;;;;;;;22.83;56.05;100049.06;5038036;28;20376;-77
2021/07/07 00:10:54;;;;;;;8.07;2.10;;;;;;;22.77;55.76;100051.00;5038118;28;20021;-76
2021/07/07 00:13:20;;;;;;;4.50;2.25;;;;;;;22.72;55.58;100054.56;5038175;28;20017;-76
2021/07/07 00:15:45;;;;;;;5.65;1.83;;;;;;;22.66;55.58;100045.09;5037886;28;20021;-75
2021/07/07 00:18:11;;;;;;;4.68;2.33;;;;;;;22.64;55.80;100059.09;5037580;28;20099;-76
2021/07/07 00:20:40;;;;;;;3.78;1.70;;;;;;;22.60;55.61;100065.03;5037661;28;20417;-75
2021/07/07 00:23:06;;;;;;;3.55;1.90;;;;;;;22.58;55.99;100055.38;5038127;28;20032;-77
2021/07/07 00:25:32;;;;;;;16.75;2.67;;;;;;;22.55;55.53;100057.16;5037538;28;20436;-76
2021/07/07 00:27:57;;;;;;;5.93;1.88;;;;;;;22.54;55.93;100064.16;5019894;28;20082;-75
2021/07/07 00:30:23;;;;;;;4.78;2.22;;;;;;;22.55;56.39;100057.16;5020416;28;20033;-78
2021/07/07 00:32:48;;;;;;;6.55;2.17;;;;;;;22.55;57.16;100056.34;5020058;28;20021;-75
2021/07/07 00:35:14;;;;;;;9.68;2.85;;;;;;;22.55;56.70;100056.34;5037814;28;20025;-74
2021/07/07 00:37:39;;;;;;;4.25;1.90;;;;;;;22.57;56.77;100057.44;5037527;28;20111;-76
2021/07/07 00:40:06;;;;;;;5.88;1.90;;;;;;;22.58;56.35;100061.09;5036376;28;20413;-74
2021/07/07 00:42:32;;;;;;;3.85;1.88;;;;;;;22.56;56.43;100060.78;5037466;28;20017;-75
2021/07/07 00:44:57;;;;;;;2.80;1.88;;;;;;;22.52;56.29;100061.78;5036286;28;20022;-77
2021/07/07 00:47:22;;;;;;;5.30;1.98;;;;;;;22.51;56.71;100054.47;5037560;28;20405;-74
2021/07/07 00:49:48;;;;;;;7.97;2.28;;;;;;;22.49;56.92;100059.13;5037410;28;20053;-76
2021/07/07 00:52:13;;;;;;;9.77;2.47;;;;;;;22.42;57.21;100066.00;5037174;28;20108;-75
2021/07/07 00:54:39;;;;;;;5.90;2.25;;;;;;;22.39;57.46;100066.22;5036966;28;20348;-76
2021/07/07 00:57:05;;;;;;;6.93;2.30;;;;;;;22.35;57.75;100066.41;5019853;28;20025;-76
2021/07/07 00:59:31;;;;;;;4.22;2.25;;;;;;;22.32;57.98;100064.53;5019647;28;20091;-76
2021/07/07 01:01:58;;;;;;;5.72;2.17;;;;;;;22.29;58.98;100062.66;5037161;28;20085;-77
2021/07/07 01:04:24;;;;;;;9.65;2.83;;;;;;;22.24;59.37;100062.56;5035699;28;20029;-77
2021/07/07 01:06:49;;;;;;;11.10;2.10;;;;;;;22.20;58.73;100069.25;5019148;28;20025;-76
2021/07/07 01:09:14;;;;;;;8.90;2.22;;;;;;;22.15;58.66;100057.69;5019230;28;20044;-77
2021/07/07 01:11:40;;;;;;;7.38;2.25;;;;;;;22.11;58.67;100062.81;5019497;28;20033;-76
2021/07/07 01:14:05;;;;;;;6.90;2.30;;;;;;;22.08;58.60;100063.78;5019362;28;20068;-76
2021/07/07 01:16:31;;;;;;;4.78;2.33;;;;;;;22.09;58.51;100065.38;5019149;28;20408;-77
2021/07/07 01:18:57;;;;;;;9.63;2.60;;;;;;;22.08;59.39;100058.06;5019822;28;20033;-75
2021/07/07 01:21:23;;;;;;;5.63;2.05;;;;;;;22.05;59.13;100054.13;5036540;28;20074;-76
2021/07/07 01:23:53;;;;;;;7.80;1.98;;;;;;;22.05;60.21;100056.97;5036625;28;20317;-75
2021/07/07 01:26:19;;;;;;;4.97;2.00;;;;;;;22.00;59.53;100059.72;5036789;28;20436;-77
2021/07/07 01:28:45;;;;;;;9.27;2.30;;;;;;;21.95;58.92;100048.94;5016776;28;20030;-76
2021/07/07 01:31:10;;;;;;;6.80;1.88;;;;;;;21.90;58.60;100051.19;5027710;28;20026;-76
2021/07/07 01:33:36;;;;;;;8.85;2.22;;;;;;;21.89;58.49;100058.19;5018908;28;20025;-76
2021/07/07 01:36:01;;;;;;;9.38;2.22;;;;;;;21.87;58.87;100060.75;5036623;28;20024;-77
2021/07/07 01:38:27;;;;;;;5.47;1.95;;;;;;;21.86;58.92;100058.38;5035691;28;20033;-76
2021/07/07 01:40:58;;;;;;;8.48;2.22;;;;;;;21.86;59.48;100059.16;5018807;28;20088;-76
2021/07/07 01:43:23;;;;;;;5.70;2.15;;;;;;;21.86;60.40;100056.31;5018936;28;20027;-74
2021/07/07 01:45:49;;;;;;;9.13;2.17;;;;;;;21.84;60.05;100053.16;5036263;28;20489;-74
2021/07/07 01:48:14;;;;;;;3.70;2.17;;;;;;;21.80;59.95;100052.53;5036343;28;20021;-76
2021/07/07 01:50:39;;;;;;;5.35;2.13;;;;;;;21.79;60.21;100058.75;5036486;28;20356;-74
2021/07/07 01:53:05;;;;;;;4.45;2.35;;;;;;;21.75;60.46;100058.94;5018550;28;20044;-75
2021/07/07 01:55:30;;;;;;;5.03;2.38;;;;;;;21.72;59.90;100051.34;5035721;28;20341;-77
2021/07/07 01:57:55;;;;;;;5.18;2.17;;;;;;;21.83;59.02;100067.94;5036325;28;20108;-73
2021/07/07 02:00:24;;;;;;;5.78;2.38;;;;;;;21.83;58.26;100070.81;5036295;28;20059;-75
2021/07/07 02:02:51;;;;;;;6.63;2.88;;;;;;;21.75;58.33;100070.38;5035886;28;20024;-75
2021/07/07 02:05:17;;;;;;;3.60;2.65;;;;;;;21.70;58.02;100068.22;5007826;28;20021;-75
2021/07/07 02:07:43;;;;;;;5.65;2.20;;;;;;;21.66;58.83;100073.31;5032990;28;20029;-74
2021/07/07 02:10:12;;;;;;;11.63;2.42;;;;;;;21.67;58.29;100076.97;5018458;28;20025;-77
2021/07/07 02:12:38;;;;;;;7.88;2.22;;;;;;;21.62;58.34;100069.84;5035463;28;20026;-76
2021/07/07 02:15:17;;;;;;;8.52;2.17;;;;;;;21.60;58.54;100064.59;5018430;28;20317;-73
2021/07/07 02:17:44;;;;;;;5.70;2.53;;;;;;;21.52;58.41;100066.25;5035664;28;20025;-74
2021/07/07 02:20:11;;;;;;;4.40;2.78;;;;;;;21.48;58.36;100073.44;5028300;28;20045;-75
2021/07/07 02:22:38;;;;;;;3.85;2.75;;;;;;;21.47;58.91;100069.78;5028419;28;20100;-73
2021/07/07 02:25:06;;;;;;;6.32;2.90;;;;;;;21.45;58.82;100069.47;5035608;28;20421;-76
2021/07/07 02:27:31;;;;;;;6.80;2.70;;;;;;;21.46;58.96;100073.13;5035712;28;20313;-76
2021/07/07 02:29:56;;;;;;;5.28;2.65;;;;;;;21.42;58.96;100076.16;5035583;28;20021;-75
2021/07/07 02:32:22;;;;;;;5.00;2.95;;;;;;;21.40;59.21;100083.66;5035498;28;20291;-76
2021/07/07 02:34:47;;;;;;;7.82;3.65;;;;;;;21.41;58.83;100085.22;5035353;28;20057;-76
2021/07/07 02:37:13;;;;;;;4.20;3.38;;;;;;;21.47;58.23;100086.16;5035556;28;20098;-76
2021/07/07 02:39:38;;;;;;;4.93;3.17;;;;;;;21.46;58.75;100081.69;5035334;28;20034;-75
2021/07/07 02:42:03;;;;;;;5.57;3.47;;;;;;;21.43;59.08;100074.09;5035492;28;20026;-77
2021/07/07 02:44:28;;;;;;;6.78;3.45;;;;;;;21.37;59.49;100078.91;5017962;28;20028;-77
2021/07/07 02:46:54;;;;;;;5.00;3.15;;;;;;;21.29;59.51;100087.81;5035187;28;20021;-78
2021/07/07 02:49:20;;;;;;;8.63;3.92;;;;;;;21.26;58.99;100090.84;5035554;28;20365;-78
2021/07/07 02:51:46;;;;;;;12.52;4.07;;;;;;;21.23;59.26;100089.75;5017498;28;20029;-77
2021/07/07 02:54:11;;;;;;;7.50;4.05;;;;;;;21.22;59.47;100088.16;5017771;28;20308;-76
2021/07/07 02:56:36;;;;;;;8.57;3.63;;;;;;;21.19;59.84;100091.97;5035242;28;20042;-77
2021/07/07 02:59:02;;;;;;;12.90;3.95;;;;;;;21.14;59.89;100089.78;5035141;28;20028;-77
2021/07/07 03:01:27;;;;;;;13.13;3.97;;;;;;;21.11;59.83;100093.59;5035363;28;20029;-76
2021/07/07 03:03:52;;;;;;;7.05;3.72;;;;;;;21.09;61.06;100092.47;5035065;28;20021;-77
2021/07/07 03:06:19;;;;;;;5.75;3.70;;;;;;;21.03;61.48;100089.50;5006909;28;20029;-77
2021/07/07 03:08:44;;;;;;;6.05;3.50;;;;;;;20.98;61.12;100090.16;5035258;28;20036;-77
2021/07/07 03:11:10;;;;;;;5.15;4.03;;;;;;;20.94;60.92;100087.47;5035124;28;20021;-76
2021/07/07 03:13:36;;;;;;;6.18;3.22;;;;;;;20.91;60.66;100094.16;5035068;28;20028;-77
2021/07/07 03:16:03;;;;;;;8.88;4.07;;;;;;;20.92;61.66;100095.72;5035044;28;20025;-76
2021/07/07 03:18:28;;;;;;;11.70;4.20;;;;;;;20.88;61.74;100094.31;5017648;28;20029;-76
2021/07/07 03:20:54;;;;;;;3.65;3.20;;;;;;;20.85;61.33;100086.72;5034920;28;20431;-77
2021/07/07 03:23:21;;;;;;;6.15;3.20;;;;;;;20.82;61.61;100096.25;5035101;28;20018;-77
2021/07/07 03:25:48;;;;;;;6.00;3.95;;;;;;;20.80;62.08;100087.34;5035113;28;20032;-77
2021/07/07 03:28:14;;;;;;;6.68;3.50;;;;;;;20.78;61.97;100089.91;5034859;28;20026;-77
2021/07/07 03:30:39;;;;;;;6.57;3.65;;;;;;;20.77;61.53;100094.03;5017591;28;20022;-77
2021/07/07 03:33:05;;;;;;;6.38;3.80;;;;;;;20.78;62.02;100096.41;5034833;28;20017;-77
2021/07/07 03:35:31;;;;;;;7.72;4.22;;;;;;;20.80;61.77;100098.78;5034723;28;20298;-77
2021/07/07 03:37:57;;;;;;;5.05;3.70;;;;;;;20.82;61.35;100096.25;5035144;28;20029;-76
2021/07/07 03:40:24;;;;;;;5.43;3.67;;;;;;;20.85;61.18;100101.78;5016919;28;20117;-76
2021/07/07 03:42:49;;;;;;;5.03;3.30;;;;;;;20.87;61.16;100107.81;5034313;28;20028;-77
2021/07/07 03:45:17;;;;;;;9.43;3.35;;;;;;;20.90;61.89;100109.72;5017360;28;20510;-77
2021/07/07 03:47:43;;;;;;;7.10;3.75;;;;;;;20.94;62.42;100109.53;5034637;28;20352;-77
2021/07/07 03:50:09;;;;;;;6.72;3.70;;;;;;;20.99;62.91;100111.72;5016917;28;20033;-76
2021/07/07 03:52:36;;;;;;;15.02;4.32;;;;;;;21.05;62.79;100118.38;5034624;28;20104;-76
2021/07/07 03:55:08;;;;;;;13.23;4.32;;;;;;;21.10;63.01;100123.47;5017221;28;20052;-77
2021/07/07 03:57:33;;;;;;;;;;;;;;;21.15;63.54;100127.72;5029773;28;20029;-77
2021/07/07 03:59:58;;;;;;;15.48;5.22;;;;;;;21.16;62.77;100118.66;5034806;28;20279;-75
2021/07/07 04:02:24;;;;;;;13.98;5.03;;;;;;;21.22;62.46;100118.78;5035355;28;20405;-76
2021/07/07 04:04:49;;;;;;;19.83;4.95;;;;;;;21.26;63.17;100123.09;5033366;28;20464;-75
2021/07/07 04:07:14;;;;;;;15.68;5.00;;;;;;;21.32;63.29;100125.28;5038133;28;20409;-70
2021/07/07 04:09:40;;;;;;;23.45;4.90;;;;;;;21.38;63.37;100120.50;5038078;28;20044;-74
2021/07/07 04:12:05;;;;;;;20.38;5.43;;;;;;;21.45;62.79;100126.66;5038129;28;20022;-75
2021/07/07 04:14:31;;;;;;;25.35;5.55;;;;;;;21.52;62.48;100128.38;5020269;28;20017;-74
2021/07/07 04:16:58;;;;;;;16.58;4.53;;;;;;;21.59;61.89;100125.13;5038190;28;20021;-71
2021/07/07 04:19:25;;;;;;;10.15;4.55;;;;;;;21.68;61.63;100133.69;5020297;28;20032;-74
2021/07/07 04:21:51;;;;;;;26.95;5.53;;;;;;;21.77;62.14;100133.63;5037828;28;20048;-75
2021/07/07 04:24:17;;;;;;;16.60;5.00;;;;;;;21.86;61.50;100133.56;5038082;28;20414;-75
2021/07/07 04:26:43;;;;;;;19.70;5.80;;;;;;;21.98;60.69;100140.31;5037298;28;20033;-75
2021/07/07 04:29:08;;;;;;;11.55;5.00;;;;;;;22.10;60.06;100141.38;5037857;28;20036;-74
2021/07/07 04:31:35;;;;;;;23.20;6.15;;;;;;;22.16;59.77;100133.69;5037610;28;20018;-74
2021/07/07 04:34:02;;;;;;;20.10;5.20;;;;;;;22.22;59.99;100140.34;5028004;28;20109;-73
2021/07/07 04:36:27;;;;;;;16.80;4.50;;;;;;;22.28;59.94;100146.97;5032330;28;20384;-72
2021/07/07 04:38:53;;;;;;;11.30;4.55;;;;;;;22.37;59.20;100148.94;5037022;28;20029;-75
2021/07/07 04:41:18;;;;;;;12.73;4.28;;;;;;;22.46;58.97;100157.44;5037491;28;20025;-76
2021/07/07 04:43:43;;;;;;;11.43;3.90;;;;;;;22.50;58.64;100152.34;5034823;28;20322;-76
2021/07/07 04:46:09;;;;;;;10.45;4.20;;;;;;;22.58;59.00;100153.53;5036240;28;20521;-76
2021/07/07 04:48:35;;;;;;;11.10;3.83;;;;;;;22.68;58.46;100157.09;5036144;28;20021;-76
2021/07/07 04:51:00;;;;;;;10.23;4.00;;;;;;;22.75;58.76;100153.88;5018965;28;20325;-76
2021/07/07 04:53:25;;;;;;;16.70;4.57;;;;;;;22.85;59.47;100161.09;5035741;28;20588;-76
2021/07/07 04:55:51;;;;;;;14.55;4.15;;;;;;;22.95;60.11;100168.31;5018241;28;20049;-76
2021/07/07 04:58:16;;;;;;;13.23;4.03;;;;;;;23.05;59.15;100166.16;5035695;28;20039;-76
2021/07/07 05:00:42;;;;;;;14.35;4.57;;;;;;;23.17;59.04;100167.13;5018264;28;20017;-76
2021/07/07 05:03:07;;;;;;;24.05;4.60;;;;;;;23.27;57.74;100162.84;5018738;28;20478;-75
2021/07/07 05:05:32;;;;;;;20.40;4.03;;;;;;;23.36;57.60;100165.63;5035886;28;20022;-77
2021/07/07 05:07:58;;;;;;;13.45;3.78;;;;;;;23.46;57.36;100169.16;5035094;28;20030;-76
2021/07/07 05:10:23;;;;;;;13.70;3.55;;;;;;;23.57;57.76;100175.13;5018117;28;20028;-76
2021/07/07 05:12:48;;;;;;;9.65;3.53;;;;;;;23.67;56.99;100168.75;5019275;28;20029;-76
2021/07/07 05:15:15;;;;;;;8.70;3.47;;;;;;;23.79;56.52;100171.78;5034272;28;20021;-77
2021/07/07 05:17:41;;;;;;;10.55;4.20;;;;;;;23.91;55.65;100168.56;5017207;28;20017;-76
2021/07/07 05:20:08;;;;;;;7.72;3.38;;;;;;;24.02;55.23;100174.47;5027994;28;20330;-75
2021/07/07 05:22:34;;;;;;;8.85;3.65;;;;;;;24.14;55.06;100178.28;5027485;28;20029;-77
2021/07/07 05:24:59;;;;;;;6.30;3.47;;;;;;;24.26;55.33;100170.59;5034691;28;20025;-76
2021/07/07 05:27:24;;;;;;;9.88;3.17;;;;;;;24.39;54.26;100171.06;5035119;28;20400;-76
2021/07/07 05:29:50;;;;;;;8.90;4.70;;;;;;;24.51;53.42;100177.72;5035330;28;20023;-77
2021/07/07 05:32:21;;;;;;;19.65;10.00;;;;;;;24.63;53.52;100173.66;5036669;28;20029;-76
2021/07/07 05:34:47;;;;;;;12.02;5.43;;;;;;;24.72;53.37;100176.41;5036425;28;20033;-76
2021/07/07 05:37:12;;;;;;;14.23;4.88;;;;;;;24.83;53.89;100181.47;5028739;28;20104;-76
2021/07/07 05:39:38;;;;;;;8.85;4.00;;;;;;;24.92;54.01;100184.94;5029407;28;20100;-76
2021/07/07 05:42:03;;;;;;;16.10;4.20;;;;;;;25.01;54.34;100186.91;5036497;28;20104;-76
2021/07/07 05:44:28;;;;;;;14.00;4.60;;;;;;;25.11;53.87;100181.75;5036258;28;20048;-76
2021/07/07 05:46:54;;;;;;;13.75;5.35;;;;;;;25.22;53.60;100190.50;5036146;28;20059;-76
2021/07/07 05:49:19;;;;;;;10.63;4.72;;;;;;;25.33;53.55;100189.81;5036515;28;20040;-76
2021/07/07 05:51:45;;;;;;;11.73;4.88;;;;;;;25.43;52.29;100189.09;5036119;28;20471;-76
2021/07/07 05:54:10;;;;;;;7.55;4.93;;;;;;;25.54;52.05;100183.44;5036381;28;20032;-76
2021/07/07 05:56:35;;;;;;;8.85;5.28;;;;;;;25.67;52.38;100185.91;5016274;28;20042;-76
2021/07/07 05:59:01;;;;;;;10.55;4.80;;;;;;;25.82;51.91;100182.88;5031836;28;20025;-76
2021/07/07 06:01:26;;;;;;;11.90;5.35;;;;;;;25.92;51.50;100184.25;5016525;28;20029;-76
2021/07/07 06:03:52;;;;;;;11.27;6.07;;;;;;;26.02;51.31;100191.38;5016045;28;20101;-76
2021/07/07 06:06:17;;;;;;;8.90;5.30;;;;;;;26.11;51.21;100184.63;4999032;28;20053;-77
2021/07/07 06:08:42;;;;;;;9.45;5.60;;;;;;;26.17;50.87;100189.09;5016074;28;20413;-76
2021/07/07 06:11:08;;;;;;;6.88;6.07;;;;;;;26.28;51.48;100196.19;5016246;28;20313;-77
2021/07/07 06:13:33;;;;;;;8.95;5.57;;;;;;;26.37;51.41;100198.91;5015888;28;20021;-73
2021/07/07 06:15:58;;;;;;;8.32;6.07;;;;;;;26.48;51.67;100201.81;5016004;28;20025;-76
2021/07/07 06:18:24;;;;;;;10.75;5.60;;;;;;;26.61;52.46;100202.16;5016283;28;20113;-75
2021/07/07 06:20:49;;;;;;;9.75;5.80;;;;;;;26.70;50.66;100196.13;4998516;28;20432;-77
2021/07/07 06:23:14;;;;;;;8.13;6.20;;;;;;;26.79;50.04;100201.66;4998599;28;20021;-76
2021/07/07 06:25:40;;;;;;;8.77;5.63;;;;;;;26.90;50.50;100197.25;5015661;28;20037;-77
2021/07/07 06:28:06;;;;;;;8.27;6.30;;;;;;;27.03;48.98;100200.44;4998156;28;20025;-75
2021/07/07 06:30:32;;;;;;;6.68;5.80;;;;;;;27.16;50.19;100197.84;5016643;28;20025;-75
2021/07/07 06:32:59;;;;;;;10.13;5.80;;;;;;;27.27;49.39;100197.84;5015909;28;20393;-76
2021/07/07 06:35:25;;;;;;;9.70;5.82;;;;;;;27.39;49.35;100208.09;5015984;28;20032;-74
2021/07/07 06:37:52;;;;;;;9.95;5.97;;;;;;;27.50;48.80;100209.38;4998467;28;20468;-75
2021/07/07 06:40:19;;;;;;;12.05;6.65;;;;;;;27.59;47.57;100206.22;5015741;28;20037;-77
2021/07/07 06:42:46;;;;;;;9.32;6.30;;;;;;;27.66;48.10;100205.72;5015696;28;20313;-76
2021/07/07 06:45:12;;;;;;;9.27;6.15;;;;;;;27.76;48.92;100209.94;5015735;28;20018;-76
2021/07/07 06:47:38;;;;;;;12.65;5.65;;;;;;;27.88;47.40;100214.34;5015660;28;20029;-74
2021/07/07 06:50:06;;;;;;;7.65;5.75;;;;;;;27.97;46.92;100210.41;4998270;28;20080;-78
2021/07/07 06:52:32;;;;;;;8.68;5.55;;;;;;;28.04;45.79;100211.97;5015481;28;20030;-74
2021/07/07 06:54:58;;;;;;;6.72;5.47;;;;;;;28.11;45.66;100211.41;5004751;28;20052;-75
2021/07/07 06:57:24;;;;;;;6.22;5.55;;;;;;;28.17;46.20;100221.66;5034982;28;20419;-77
2021/07/07 06:59:49;;;;;;;7.45;5.57;;;;;;;28.26;45.96;100211.94;5017923;28;20029;-76
2021/07/07 07:02:14;;;;;;;8.05;5.80;;;;;;;28.31;45.47;100214.03;5035349;28;20024;-75
2021/07/07 07:04:40;;;;;;;9.02;5.82;;;;;;;28.35;45.83;100214.53;5029374;28;20022;-76
2021/07/07 07:07:05;;;;;;;8.20;5.65;;;;;;;28.40;45.35;100219.50;5012695;28;20048;-75
2021/07/07 07:09:31;;;;;;;6.22;5.32;;;;;;;28.48;44.70;100211.84;5035170;28;20029;-76
2021/07/07 07:11:56;;;;;;;9.60;5.82;;;;;;;28.56;44.73;100212.88;5035178;28;20033;-76
2021/07/07 07:14:22;;;;;;;9.80;6.50;;;;;;;28.65;44.99;100213.88;5034732;28;20033;-75
2021/07/07 07:16:47;;;;;;;7.78;6.20;;;;;;;28.72;44.31;100213.31;5035195;28;20018;-75
2021/07/07 07:19:16;;;;;;;7.65;5.55;;;;;;;28.71;43.90;100218.31;5035307;28;20025;-76
2021/07/07 07:21:42;;;;;;;7.72;6.05;;;;;;;28.78;43.45;100211.97;5034759;28;20371;-76
2021/07/07 07:24:07;;;;;;;6.78;5.80;;;;;;;28.84;43.73;100209.03;5035188;28;20025;-77
2021/07/07 07:26:33;;;;;;;12.93;5.82;;;;;;;28.93;43.31;100220.31;5034734;28;20096;-75
2021/07/07 07:29:00;;;;;;;9.18;5.40;;;;;;;29.02;42.65;100220.00;5035105;28;20394;-74
2021/07/07 07:31:26;;;;;;;6.70;5.60;;;;;;;29.13;43.05;100219.16;5034958;28;20017;-76
2021/07/07 07:33:51;;;;;;;9.35;5.90;;;;;;;29.23;42.83;100215.38;5034911;28;20397;-75
2021/07/07 07:36:18;;;;;;;8.45;5.03;;;;;;;29.33;43.06;100223.75;5035068;28;20033;-76
2021/07/07 07:38:47;;;;;;;10.73;5.82;;;;;;;29.51;43.28;100225.97;5037677;28;20079;-76
2021/07/07 07:41:13;;;;;;;8.82;5.63;;;;;;;29.59;42.22;100221.19;5038691;28;20037;-76
2021/07/07 07:43:38;;;;;;;7.55;5.47;;;;;;;29.66;42.05;100222.72;5038660;28;20022;-76
2021/07/07 07:46:04;;;;;;;7.22;5.72;;;;;;;29.67;41.14;100230.84;5038556;28;20079;-76
2021/07/07 07:48:30;;;;;;;13.27;5.82;;;;;;;29.72;41.43;100232.91;5038632;28;20108;-76
2021/07/07 07:50:56;;;;;;;7.88;5.93;;;;;;;29.78;40.99;100230.75;5038537;28;20037;-76
2021/07/07 07:53:22;;;;;;;11.98;5.47;;;;;;;29.82;40.85;100236.25;5038576;28;20029;-76
2021/07/07 07:55:48;;;;;;;6.13;5.53;;;;;;;29.87;40.41;100234.63;5038151;28;20046;-75
2021/07/07 07:58:18;;;;;;;8.48;5.60;;;;;;;29.96;42.05;100231.38;5021045;28;20329;-76
2021/07/07 08:00:45;;;;;;;6.50;5.60;;;;;;;30.06;40.86;100230.50;5038146;28;20017;-75
2021/07/07 08:03:12;;;;;;;6.65;5.68;;;;;;;30.21;40.22;100241.69;5021076;28;20171;-75
2021/07/07 08:05:39;;;;;;;7.03;5.60;;;;;;;30.38;39.19;100232.78;5027591;28;20064;-76
2021/07/07 08:08:06;;;;;;;8.02;5.10;;;;;;;30.50;38.47;100233.44;5038226;28;20029;-75
2021/07/07 08:10:32;;;;;;;8.90;5.72;;;;;;;30.54;38.41;100236.81;5022987;28;20341;-76
2021/07/07 08:12:57;;;;;;;8.98;6.78;;;;;;;30.52;37.47;100242.38;5038149;28;20373;-76
2021/07/07 08:15:24;;;;;;;9.65;5.25;;;;;;;30.54;38.89;100231.78;5038108;28;20109;-76
2021/07/07 08:17:50;;;;;;;6.97;6.28;;;;;;;30.57;37.79;100236.50;5037949;28;20021;-75
2021/07/07 08:20:16;;;;;;;10.45;7.53;;;;;;;30.56;37.26;100237.03;5038213;28;20033;-76
2021/07/07 08:22:41;;;;;;;10.63;6.60;;;;;;;30.58;37.25;100237.28;5037766;28;20403;-76
2021/07/07 08:25:09;;;;;;;6.72;5.68;;;;;;;30.64;38.41;100235.91;5037790;28;20022;-75
2021/07/07 08:27:35;;;;;;;9.70;6.32;;;;;;;30.72;37.44;100238.97;5025566;28;20373;-76
2021/07/07 08:30:00;;;;;;;12.95;6.30;;;;;;;30.77;37.08;100243.13;5035665;28;20021;-75
2021/07/07 08:32:25;;;;;;;9.52;5.97;;;;;;;30.81;37.21;100235.69;5037820;28;20036;-76
2021/07/07 08:34:51;;;;;;;9.50;5.40;;;;;;;30.82;37.17;100243.06;5037622;28;20067;-75
2021/07/07 08:37:16;;;;;;;7.43;6.15;;;;;;;30.85;35.88;100247.75;5037915;28;20627;-76
2021/07/07 08:39:42;;;;;;;9.68;5.78;;;;;;;30.87;36.04;100227.69;5037233;28;20095;-76
2021/07/07 08:42:07;;;;;;;14.27;5.70;;;;;;;30.95;35.97;100233.63;5037631;28;20021;-74
2021/07/07 08:44:33;;;;;;;10.77;5.80;;;;;;;31.01;36.92;100226.44;5037630;28;20384;-75
2021/07/07 08:46:58;;;;;;;8.15;6.13;;;;;;;31.06;37.31;100228.47;5019864;28;20025;-75
2021/07/07 08:49:24;;;;;;;6.75;5.50;;;;;;;31.13;36.50;100237.88;5037303;28;20314;-76
2021/07/07 08:51:49;;;;;;;9.85;6.25;;;;;;;31.20;34.63;100237.25;5019754;28;20030;-76
2021/07/07 08:54:17;;;;;;;9.20;5.30;;;;;;;31.30;35.65;100235.53;5035173;28;20054;-75
2021/07/07 08:56:44;;;;;;;8.88;5.25;;;;;;;31.33;35.06;100235.22;5019911;28;20038;-75
2021/07/07 08:59:11;;;;;;;5.95;5.43;;;;;;;31.34;35.72;100244.72;5037239;28;20014;-76
2021/07/07 09:01:59;;;;;;;7.35;5.05;;;;;;;31.40;34.02;100251.22;5019595;28;20025;-75
2021/07/07 09:04:35;;;;;;;5.07;4.57;;;;;;;31.50;34.07;100240.75;5033553;28;20080;-75
2021/07/07 09:07:18;;;;;;;9.50;5.03;;;;;;;31.61;34.74;100246.38;5013890;28;20032;-76
2021/07/07 09:09:48;;;;;;;5.78;4.95;;;;;;;31.64;33.78;100251.06;5037115;28;20116;-76
2021/07/07 09:12:27;;;;;;;10.57;4.90;;;;;;;31.70;34.02;100253.88;5036837;28;20021;-76
2021/07/07 09:15:16;;;;;;;9.05;5.18;;;;;;;31.76;33.79;100245.88;5036889;28;20041;-75
2021/07/07 09:17:44;;;;;;;5.00;4.32;;;;;;;31.85;33.05;100235.97;5036823;28;20025;-75
2021/07/07 09:20:21;;;;;;;5.72;4.90;;;;;;;31.92;34.45;100246.94;5019458;28;20033;-76
2021/07/07 09:22:49;;;;;;;6.22;4.78;;;;;;;31.99;35.03;100243.34;5036411;28;20013;-75
2021/07/07 09:25:18;;;;;;;9.38;5.40;;;;;;;32.13;34.98;100247.84;5036973;28;20291;-76
2021/07/07 09:27:44;;;;;;;5.60;5.10;;;;;;;32.10;33.08;100248.97;5036824;28;20025;-76
2021/07/07 09:30:13;;;;;;;6.68;4.88;;;;;;;32.15;34.17;100238.56;5036520;28;20313;-76
2021/07/07 09:32:47;;;;;;;6.72;5.05;;;;;;;32.15;33.97;100242.25;5024285;28;20028;-76
2021/07/07 09:35:16;;;;;;;6.53;4.63;;;;;;;32.16;34.71;100246.75;5017707;28;20025;-76
2021/07/07 09:37:53;;;;;;;5.03;4.53;;;;;;;32.15;34.15;100239.34;5018856;28;20036;-75
2021/07/07 09:40:18;;;;;;;8.07;4.93;;;;;;;32.20;32.94;100241.38;5036468;28;20029;-75
2021/07/07 09:42:46;;;;;;;7.28;4.63;;;;;;;32.19;33.23;100242.72;5036339;28;20075;-77
2021/07/07 09:45:18;;;;;;;8.55;5.40;;;;;;;32.21;33.61;100245.84;5036300;28;20100;-76
2021/07/07 09:47:44;;;;;;;7.05;4.45;;;;;;;32.26;32.67;100242.06;5018799;28;20028;-76
2021/07/07 09:50:12;;;;;;;6.68;4.90;;;;;;;32.33;33.05;100239.84;5036694;28;20021;-76
2021/07/07 09:52:38;;;;;;;5.78;5.10;;;;;;;32.45;33.87;100232.44;5027240;28;20038;-75
2021/07/07 09:55:09;;;;;;;5.53;4.38;;;;;;;32.54;33.56;100232.78;5031847;28;20042;-76
2021/07/07 09:57:44;;;;;;;;;;;;;;;32.57;33.36;100234.56;5023191;28;20029;-76
2021/07/07 10:00:20;;;;;;;7.57;5.07;;;;;;;32.50;32.64;100232.34;5035746;28;19909;-75
2021/07/07 10:02:51;;;;;;;5.80;4.63;;;;;;;32.52;32.28;100231.78;5018333;28;20401;-76
2021/07/07 10:05:18;;;;;;;7.03;4.90;;;;;;;32.58;33.15;100235.34;5025314;28;20038;-76
2021/07/07 10:07:44;;;;;;;7.28;4.78;;;;;;;32.63;32.33;100234.47;5022374;28;20044;-76
2021/07/07 10:10:14;;;;;;;8.93;4.75;;;;;;;32.67;31.63;100237.03;5035935;28;20482;-77
2021/07/07 10:12:44;;;;;;;10.30;4.80;;;;;;;32.65;31.93;100231.78;5035704;28;20032;-76
2021/07/07 10:15:12;;;;;;;7.05;4.82;;;;;;;32.63;31.79;100231.56;5035007;28;20074;-76
2021/07/07 10:17:39;;;;;;;7.63;4.75;;;;;;;32.66;32.31;100223.81;5035726;28;20029;-75
2021/07/07 10:20:06;;;;;;;6.75;4.50;;;;;;;32.66;31.66;100230.41;5035588;28;20022;-75
2021/07/07 10:22:32;;;;;;;6.03;4.63;;;;;;;32.67;31.42;100232.00;5035946;28;20024;-76
2021/07/07 10:24:59;;;;;;;5.40;4.82;;;;;;;32.73;32.00;100241.38;5035271;28;20286;-76
2021/07/07 10:27:25;;;;;;;5.82;5.15;;;;;;;32.70;33.05;100233.00;5035816;28;20092;-76
2021/07/07 10:29:50;;;;;;;5.57;4.53;;;;;;;32.71;31.86;100235.34;5035501;28;20104;-75
2021/07/07 10:32:16;;;;;;;6.43;5.28;;;;;;;32.79;31.84;100238.38;5035520;28;20037;-76
2021/07/07 10:34:42;;;;;;;7.43;4.57;;;;;;;32.87;32.64;100230.50;5001454;28;20034;-75
2021/07/07 10:37:08;;;;;;;9.15;4.65;;;;;;;32.95;32.39;100231.41;5035879;28;20048;-76
2021/07/07 10:39:33;;;;;;;6.68;4.47;;;;;;;32.99;32.41;100228.91;5035504;28;20095;-76
2021/07/07 10:42:02;;;;;;;7.90;4.72;;;;;;;33.08;32.00;100218.91;5035348;28;20104;-76
2021/07/07 10:44:44;;;;;;;6.65;4.22;;;;;;;33.13;32.09;100220.91;5035505;28;20413;-76
2021/07/07 10:47:13;;;;;;;10.18;4.85;;;;;;;33.23;32.98;100227.06;5035130;28;20025;-76
2021/07/07 10:49:47;;;;;;;6.72;4.72;;;;;;;33.29;32.72;100224.78;5017700;28;20075;-76
2021/07/07 10:52:20;;;;;;;6.07;4.50;;;;;;;33.29;31.57;100213.91;5015755;28;20025;-77
2021/07/07 10:54:57;;;;;;;4.47;4.07;;;;;;;33.30;32.22;100217.59;5007652;28;20045;-76
2021/07/07 10:57:24;;;;;;;20.30;5.40;;;;;;;33.24;31.29;100219.88;5017792;28;20413;-76
2021/07/07 10:59:55;;;;;;;8.77;4.72;;;;;;;33.18;31.09;100222.94;5035321;28;20041;-76
2021/07/07 11:02:27;;;;;;;6.10;4.68;;;;;;;33.18;31.90;100217.09;5035288;28;20417;-76
2021/07/07 11:05:02;;;;;;;7.45;4.65;;;;;;;33.24;30.86;100220.66;5027432;28;20036;-75
2021/07/07 11:07:32;;;;;;;6.78;4.47;;;;;;;33.31;30.94;100219.16;5033327;28;20034;-76
2021/07/07 11:10:08;;;;;;;5.17;4.33;;;;;;;33.41;32.24;100211.53;5035295;28;20025;-77
2021/07/07 11:12:36;;;;;;;7.25;4.85;;;;;;;33.58;32.97;100211.13;5037858;28;20022;-77
2021/07/07 11:15:16;;;;;;;9.05;4.97;;;;;;;33.73;32.23;100208.34;5039446;28;20100;-76
2021/07/07 11:17:44;;;;;;;10.25;4.55;;;;;;;33.75;30.93;100220.22;5038997;28;20033;-76
2021/07/07 11:20:11;;;;;;;8.13;4.03;;;;;;;33.75;30.87;100211.47;5039349;28;20104;-76
2021/07/07 11:22:39;;;;;;;6.95;4.90;;;;;;;33.75;30.58;100208.56;5039026;28;20025;-75